Etusivu
METAR-TAF:

METAR-TAF

Lentoasemat :

South St. Paul Municipal Airport (Richard E. Fleming Field)

South St. Paul, Minnesota, Yhdysvallat

Leveyspiiri: 44-51-26N, Pituuspiiri: 093-01-58W, korkeus merenpinnasta: 250 m

Tämänhetkinen sää

Tämä raportti tehtiin 26 minuuttia sitten, kello 19.15 UTC
Tuuli 10 kn luoteesta puuskistuen 14 kn:hen
Lämpötila -2°C
Kosteus 50%
Ilmanpaine 1025 hPa
Näkyvyys: 16.1 km
selkeää

METAR: KSGS 261915Z AUTO 32010G14KT 10SM CLR M02/M11 A3026 RMK AO2 T10201113

Aika: 13:41 (19:41 UTC)


TAF: puuttuu

Säähavainnot ja -ennusteet yli 4000 lentoasemalta (METAR- ja TAF-raportit).

Käytössä olevat sääasemat on merkitty karttaan keltaisilla ja punaisilla pisteillä.

Aseta hiiri pisteen päälle nähdäksesi sääaseman nimen.

Klikkaa sitten nähdäksesi säähavainnot ja -ennusteet.

Kartan vaihtaminen: klikkaa mustalla rastilla varustettuja vihreitä pisteitä, niin voit zoomata sisään; viivalla varustettua vihreää pistettä, niin voit zoomata ulos tai vihreitä nuolia, niin pääset viereisille kartoille.


METAR-TAF: